KSKA/SKA METAR and TAF weather

Enter ICAO airport designator
Station Type Date Time Source
KSKA METAR 2022/01/27 22:41 UTC NOAA

KSKA 272241Z 26004KT 10SM SCT018 01/M03 A3055 RMK AO2A SLP375 $


Station Type Date Time Source
KSKA Decoded METAR 2022/01/27 22:41 UTC NOAA

Fairchild Air Force Base, WA, United States (KSKA) 47-37N 117-39W
Jan 27, 2022 - 05:41 PM EST / 2022.01.27 2241 UTC
Wind: from the W (260 degrees) at 5 MPH (4 KT):0
Visibility: 10 mile(s):0
Sky conditions: partly cloudy
Temperature: 33 F (1 C)
Windchill: 28 F (-2 C):1
Dew Point: 26 F (-3 C)
Relative Humidity: 74%
Pressure (altimeter): 30.55 in. Hg (1034 hPa)
ob: KSKA 272241Z 26004KT 10SM SCT018 01/M03 A3055 RMK AO2A SLP375
cycle: 22

Station Type Date Time Source
KSKA TAF 2022/01/27 19:58 UTC NOAA

TAF KSKA 271900Z 2719/2901 05005KT 9999 FEW025 SCT250 QNH3055INS
BECMG 2805/2806 08006KT 9999 VCFG FEW002 FEW250 QNH3051INS
BECMG 2811/2812 08008KT 0800 FZFG VV002 620001 QNH3046INS
BECMG 2817/2818 06009KT 9999 NSW FEW004 FEW200 QNH3037INS TX02/2723Z TNM06/2811Z

Example: see airport list